createdAt,value
2023-02-11T00:01:10.587Z,99.90
2023-02-11T00:03:39.093Z,99.90
2023-02-11T00:06:11.423Z,99.90
2023-02-11T00:08:39.719Z,99.90
2023-02-11T00:11:07.181Z,99.90
2023-02-11T00:13:34.378Z,99.90
2023-02-11T00:16:07.638Z,99.90
2023-02-11T00:18:36.558Z,99.90
2023-02-11T00:21:08.807Z,99.90
2023-02-11T00:23:36.194Z,99.90
2023-02-11T00:26:04.037Z,99.90
2023-02-11T00:28:31.266Z,99.90
2023-02-11T00:30:59.375Z,99.90
2023-02-11T00:33:26.699Z,99.90
2023-02-11T00:35:53.938Z,99.90
2023-02-11T00:38:21.211Z,99.90
2023-02-11T00:40:48.658Z,1.00
2023-02-11T00:43:15.971Z,1.00
2023-02-11T00:45:43.129Z,1.00
2023-02-11T00:48:10.303Z,1.00
2023-02-11T00:50:37.500Z,1.00
2023-02-11T00:53:04.817Z,1.00
2023-02-11T00:55:32.037Z,1.00
2023-02-11T00:58:00.306Z,1.00
2023-02-11T01:00:28.130Z,1.00
2023-02-11T01:02:56.096Z,1.00
2023-02-11T01:05:25.115Z,1.00
2023-02-11T01:07:52.462Z,1.00
2023-02-11T01:10:19.759Z,1.00
2023-02-11T01:12:47.061Z,1.00
2023-02-11T01:15:20.000Z,1.00
2023-02-11T01:17:47.277Z,1.00
2023-02-11T01:20:17.779Z,1.00
2023-02-11T01:22:45.071Z,1.00
2023-02-11T01:25:13.190Z,1.00
2023-02-11T01:27:40.660Z,1.00
2023-02-11T01:30:10.386Z,1.00
2023-02-11T01:32:37.714Z,1.00
2023-02-11T01:35:05.675Z,1.00
2023-02-11T01:37:36.827Z,1.00
2023-02-11T01:40:07.144Z,1.00
2023-02-11T01:42:34.581Z,1.00
2023-02-11T01:45:39.625Z,1.00
2023-02-11T01:48:07.764Z,1.00
2023-02-11T01:50:35.985Z,1.00
2023-02-11T01:53:23.412Z,1.00
2023-02-11T01:56:11.254Z,1.00
2023-02-11T01:58:42.112Z,1.00
2023-02-11T02:01:11.503Z,1.00
2023-02-11T02:03:42.446Z,1.00
2023-02-11T02:06:23.054Z,1.00
2023-02-11T02:09:00.980Z,1.00
2023-02-11T02:11:31.110Z,1.00
2023-02-11T02:13:58.533Z,1.00
2023-02-11T02:16:32.935Z,1.00
2023-02-11T02:19:02.976Z,1.00
2023-02-11T02:21:54.303Z,1.00
2023-02-11T02:24:52.335Z,1.00
2023-02-11T02:27:25.752Z,1.00
2023-02-11T02:29:59.026Z,1.00
2023-02-11T02:32:57.302Z,1.00
2023-02-11T02:35:46.695Z,1.00
2023-02-11T02:38:29.105Z,1.00
2023-02-11T02:41:08.694Z,1.00
2023-02-11T02:43:47.960Z,1.00
2023-02-11T02:46:18.326Z,1.00
2023-02-11T02:48:46.826Z,1.00
2023-02-11T02:51:35.860Z,1.00
2023-02-11T02:54:34.229Z,1.00
2023-02-11T02:57:18.781Z,1.00
2023-02-11T02:59:51.914Z,1.00
2023-02-11T03:02:31.659Z,1.00
2023-02-11T03:05:23.578Z,1.00
2023-02-11T03:08:03.076Z,1.00
2023-02-11T03:10:50.064Z,1.00
2023-02-11T03:13:20.443Z,1.00
2023-02-11T03:15:52.099Z,1.00
2023-02-11T03:18:23.143Z,1.00
2023-02-11T03:20:54.144Z,1.00
2023-02-11T03:23:50.945Z,1.00
2023-02-11T03:26:41.466Z,1.00
2023-02-11T03:29:23.537Z,1.00
2023-02-11T03:31:58.656Z,1.00
2023-02-11T03:34:30.313Z,1.00
2023-02-11T03:37:02.036Z,1.00
2023-02-11T03:39:38.309Z,1.00
2023-02-11T03:42:08.578Z,1.00
2023-02-11T03:44:41.592Z,1.00
2023-02-11T03:47:11.981Z,1.00
2023-02-11T03:49:40.675Z,1.00
2023-02-11T03:52:11.578Z,1.00
2023-02-11T03:54:42.910Z,1.00
2023-02-11T03:57:10.265Z,1.00
2023-02-11T03:59:57.301Z,1.00
2023-02-11T04:02:28.713Z,1.00
2023-02-11T04:04:56.016Z,1.00
2023-02-11T04:07:24.179Z,1.00
2023-02-11T04:09:51.793Z,1.00
2023-02-11T04:12:20.857Z,1.00
2023-02-11T04:14:48.146Z,1.00
2023-02-11T04:17:15.367Z,1.00
2023-02-11T04:19:42.544Z,1.00
2023-02-11T04:22:09.939Z,1.00
2023-02-11T04:24:37.206Z,1.00
2023-02-11T04:27:04.629Z,1.00
2023-02-11T04:29:32.419Z,1.00
2023-02-11T04:31:59.653Z,1.00
2023-02-11T04:34:26.940Z,1.00
2023-02-11T04:36:54.187Z,1.00
2023-02-11T04:39:21.418Z,1.00
2023-02-11T04:41:48.571Z,1.00
2023-02-11T04:44:16.076Z,1.00
2023-02-11T04:46:43.342Z,1.00
2023-02-11T04:49:14.421Z,1.00
2023-02-11T04:51:42.395Z,1.00
2023-02-11T04:54:11.662Z,1.00
2023-02-11T04:56:39.782Z,1.00
2023-02-11T04:59:07.704Z,1.00
2023-02-11T05:01:35.076Z,1.00
2023-02-11T05:04:02.369Z,1.00
2023-02-11T05:06:29.747Z,1.00
2023-02-11T05:08:56.981Z,1.00
2023-02-11T05:11:26.025Z,1.00
2023-02-11T05:13:53.271Z,1.00
2023-02-11T05:16:21.012Z,1.00
2023-02-11T05:18:50.234Z,1.00
2023-02-11T05:21:20.141Z,1.00
2023-02-11T05:23:47.539Z,1.00
2023-02-11T05:26:15.011Z,1.00
2023-02-11T05:28:42.740Z,1.00
2023-02-11T05:31:10.121Z,1.00
2023-02-11T05:33:37.696Z,1.00
2023-02-11T05:36:08.577Z,1.00
2023-02-11T05:38:35.858Z,1.00
2023-02-11T05:41:04.257Z,1.00
2023-02-11T05:43:31.459Z,1.00
2023-02-11T05:45:59.042Z,1.00
2023-02-11T05:48:26.269Z,1.00
2023-02-11T05:50:53.554Z,1.00
2023-02-11T05:53:20.760Z,1.00
2023-02-11T05:55:48.111Z,1.00
2023-02-11T05:58:15.555Z,99.90
2023-02-11T06:00:42.860Z,99.90
2023-02-11T06:03:10.053Z,99.90
2023-02-11T06:05:37.467Z,99.90
2023-02-11T06:08:04.939Z,99.90
2023-02-11T06:10:32.267Z,99.90
2023-02-11T06:13:02.187Z,99.90
2023-02-11T06:15:29.534Z,99.90
2023-02-11T06:17:57.177Z,99.90
2023-02-11T06:20:24.420Z,99.90
2023-02-11T06:22:51.660Z,99.90
2023-02-11T06:25:18.922Z,99.90
2023-02-11T06:27:46.103Z,99.90
2023-02-11T06:30:14.141Z,99.90
2023-02-11T06:32:44.872Z,99.90
2023-02-11T06:35:14.172Z,99.90
2023-02-11T06:37:42.154Z,99.90
2023-02-11T06:40:10.679Z,99.90
2023-02-11T06:42:39.514Z,99.90
2023-02-11T06:45:09.598Z,99.90
2023-02-11T06:47:37.269Z,99.90
2023-02-11T06:50:06.072Z,99.90
2023-02-11T06:52:34.021Z,99.90
2023-02-11T06:55:01.296Z,99.90
2023-02-11T06:57:28.586Z,99.90
2023-02-11T06:59:55.950Z,99.90
2023-02-11T07:02:23.140Z,99.90
2023-02-11T07:04:50.475Z,99.90
2023-02-11T07:07:17.826Z,99.90
2023-02-11T07:09:45.062Z,99.90
2023-02-11T07:12:12.385Z,91.50
2023-02-11T07:14:39.871Z,64.40
2023-02-11T07:17:07.469Z,41.20
2023-02-11T07:19:34.655Z,15.20
2023-02-11T07:22:01.800Z,1.00
2023-02-11T07:24:28.981Z,1.00
2023-02-11T07:26:56.141Z,1.00
2023-02-11T07:29:23.303Z,1.00
2023-02-11T07:31:50.759Z,1.00
2023-02-11T07:34:18.058Z,1.00
2023-02-11T07:36:45.398Z,1.00
2023-02-11T07:39:13.063Z,1.00
2023-02-11T07:41:40.260Z,1.00
2023-02-11T07:44:07.708Z,1.00
2023-02-11T07:46:36.182Z,1.00
2023-02-11T07:49:03.956Z,1.00
2023-02-11T07:51:31.907Z,1.00
2023-02-11T07:54:00.251Z,1.00
2023-02-11T07:56:28.991Z,99.90
2023-02-11T07:58:59.933Z,99.90
2023-02-11T08:01:28.944Z,99.90
2023-02-11T08:03:58.260Z,99.90
2023-02-11T08:06:27.674Z,99.90
2023-02-11T08:08:55.421Z,99.90
2023-02-11T08:11:25.111Z,99.90
2023-02-11T08:13:55.374Z,99.90
2023-02-11T08:16:35.038Z,99.90
2023-02-11T08:19:05.536Z,99.90
2023-02-11T08:21:32.774Z,99.90
2023-02-11T08:24:03.612Z,99.90
2023-02-11T08:26:33.098Z,99.90
2023-02-11T08:29:01.338Z,99.90
2023-02-11T08:31:33.819Z,99.90
2023-02-11T08:34:02.631Z,99.90
2023-02-11T08:36:34.407Z,99.90
2023-02-11T08:39:18.107Z,99.90
2023-02-11T08:41:49.080Z,99.90
2023-02-11T08:44:17.409Z,99.90
2023-02-11T08:46:44.654Z,99.90
2023-02-11T08:49:12.256Z,99.90
2023-02-11T08:51:39.391Z,99.90
2023-02-11T08:54:09.695Z,72.20
2023-02-11T08:56:38.413Z,51.90
2023-02-11T08:59:06.794Z,38.50
2023-02-11T09:01:34.386Z,19.90
2023-02-11T09:04:02.029Z,8.50
2023-02-11T09:06:29.863Z,3.10
2023-02-11T09:08:58.033Z,1.00
2023-02-11T09:11:31.962Z,1.00
2023-02-11T09:14:00.176Z,1.00
2023-02-11T09:16:30.026Z,1.00
2023-02-11T09:18:59.350Z,4.70
2023-02-11T09:21:26.717Z,12.60
2023-02-11T09:23:55.016Z,13.40
2023-02-11T09:26:33.777Z,10.60
2023-02-11T09:29:01.899Z,5.20
2023-02-11T09:31:31.700Z,1.00
2023-02-11T09:34:02.052Z,1.00
2023-02-11T09:36:35.059Z,1.00
2023-02-11T09:39:03.188Z,1.00
2023-02-11T09:42:31.977Z,1.00
2023-02-11T09:45:01.504Z,1.00
2023-02-11T09:47:33.294Z,1.00
2023-02-11T09:50:12.631Z,1.00
2023-02-11T09:53:00.251Z,1.00
2023-02-11T09:55:36.859Z,1.00
2023-02-11T09:58:16.422Z,1.00
2023-02-11T10:00:46.590Z,1.00
2023-02-11T10:03:35.138Z,1.00
2023-02-11T10:06:11.261Z,1.00
2023-02-11T10:09:07.037Z,1.00
2023-02-11T10:12:07.508Z,1.00
2023-02-11T10:14:59.743Z,1.00
2023-02-11T10:17:58.153Z,1.00
2023-02-11T10:20:33.937Z,1.00
2023-02-11T10:23:08.907Z,1.00
2023-02-11T10:25:45.227Z,1.00
2023-02-11T10:28:25.281Z,1.00
2023-02-11T10:31:02.970Z,1.00
2023-02-11T10:33:33.695Z,1.00
2023-02-11T10:36:01.346Z,1.00
2023-02-11T10:38:28.859Z,1.00
2023-02-11T10:40:56.021Z,1.00
2023-02-11T10:43:27.790Z,1.00
2023-02-11T10:45:57.256Z,1.00
2023-02-11T10:48:43.167Z,1.00
2023-02-11T10:51:18.583Z,1.00
2023-02-11T10:53:47.507Z,1.00
2023-02-11T10:56:28.043Z,1.00
2023-02-11T10:59:02.304Z,1.00
2023-02-11T11:01:45.882Z,1.00
2023-02-11T11:04:45.972Z,1.00
2023-02-11T11:07:16.064Z,1.00
2023-02-11T11:09:45.576Z,1.00
2023-02-11T11:12:29.302Z,1.00
2023-02-11T11:15:04.079Z,1.00
2023-02-11T11:17:31.413Z,1.00
2023-02-11T11:20:30.742Z,1.00
2023-02-11T11:23:16.547Z,1.00
2023-02-11T11:25:57.590Z,1.00
2023-02-11T11:28:28.594Z,1.00
2023-02-11T11:30:58.987Z,1.00
2023-02-11T11:33:35.917Z,1.00
2023-02-11T11:36:10.760Z,1.00
2023-02-11T11:38:45.935Z,1.00
2023-02-11T11:41:39.494Z,1.00
2023-02-11T11:44:30.007Z,1.00
2023-02-11T11:47:19.293Z,1.00
2023-02-11T11:49:52.165Z,1.00
2023-02-11T11:52:30.069Z,1.00
2023-02-11T11:55:19.700Z,1.00
2023-02-11T11:57:48.149Z,1.00
2023-02-11T12:00:30.918Z,1.00
2023-02-11T12:03:22.726Z,1.00
2023-02-11T12:06:12.039Z,1.00
2023-02-11T12:09:00.400Z,1.00
2023-02-11T12:11:36.534Z,1.00
2023-02-11T12:14:32.847Z,1.00
2023-02-11T12:17:31.845Z,1.00
2023-02-11T12:20:05.295Z,1.00
2023-02-11T12:22:57.395Z,1.00
2023-02-11T12:25:36.267Z,1.00
2023-02-11T12:28:13.008Z,1.00
2023-02-11T12:30:58.977Z,1.00
2023-02-11T12:33:38.616Z,1.00
2023-02-11T12:36:35.303Z,1.00
2023-02-11T12:39:23.855Z,1.00
2023-02-11T12:42:34.070Z,1.00
2023-02-11T12:45:12.999Z,1.00
2023-02-11T12:48:02.188Z,1.00
2023-02-11T12:50:50.777Z,1.00
2023-02-11T12:53:55.890Z,1.00
2023-02-11T12:56:23.313Z,1.00
2023-02-11T12:58:55.812Z,1.00
2023-02-11T13:01:29.938Z,1.00
2023-02-11T13:04:17.567Z,1.00
2023-02-11T13:07:00.138Z,1.00
2023-02-11T13:09:35.219Z,1.00
2023-02-11T13:12:25.781Z,1.00
2023-02-11T13:14:59.686Z,1.00
2023-02-11T13:17:37.443Z,1.00
2023-02-11T13:20:35.313Z,1.00
2023-02-11T13:23:14.074Z,1.00
2023-02-11T13:25:59.920Z,1.00
2023-02-11T13:28:45.584Z,1.00
2023-02-11T13:31:17.018Z,1.00
2023-02-11T13:33:46.256Z,1.00
2023-02-11T13:36:19.706Z,1.00
2023-02-11T13:39:20.438Z,1.00
2023-02-11T13:41:52.532Z,1.00
2023-02-11T13:44:25.425Z,1.00
2023-02-11T13:46:59.880Z,1.00
2023-02-11T13:49:36.053Z,1.00
2023-02-11T13:52:06.984Z,1.00
2023-02-11T13:54:38.893Z,1.00
2023-02-11T13:57:21.555Z,1.00
2023-02-11T13:59:57.523Z,1.00
2023-02-11T14:02:45.710Z,1.00
2023-02-11T14:05:37.181Z,1.00
2023-02-11T14:08:29.006Z,1.00
2023-02-11T14:11:09.164Z,1.00
2023-02-11T14:13:57.782Z,1.00
2023-02-11T14:16:37.600Z,1.00
2023-02-11T14:19:07.125Z,1.00
2023-02-11T14:21:38.431Z,1.00
2023-02-11T14:24:07.545Z,1.00
2023-02-11T14:26:59.454Z,1.00
2023-02-11T14:29:56.728Z,1.00
2023-02-11T14:32:30.434Z,1.00
2023-02-11T14:35:18.496Z,1.00
2023-02-11T14:37:50.679Z,1.00
2023-02-11T14:40:55.540Z,1.00
2023-02-11T14:43:31.579Z,1.00
2023-02-11T14:46:02.904Z,1.00
2023-02-11T14:48:38.313Z,1.00
2023-02-11T14:51:28.258Z,1.00
2023-02-11T14:54:02.166Z,1.00
2023-02-11T14:56:31.965Z,1.00
2023-02-11T14:59:00.736Z,1.00
2023-02-11T15:01:41.487Z,1.00
2023-02-11T15:04:32.035Z,1.00
2023-02-11T15:07:06.733Z,1.00
2023-02-11T15:09:33.993Z,1.00
2023-02-11T15:12:02.514Z,1.00
2023-02-11T15:14:35.665Z,1.00
2023-02-11T15:17:10.205Z,1.00
2023-02-11T15:19:42.060Z,1.00
2023-02-11T15:22:21.959Z,1.00
2023-02-11T15:25:15.150Z,1.00
2023-02-11T15:27:48.893Z,1.00
2023-02-11T15:30:22.461Z,1.00
2023-02-11T15:32:52.299Z,1.00
2023-02-11T15:35:20.372Z,1.00
2023-02-11T15:37:50.555Z,1.00
2023-02-11T15:40:28.117Z,1.00
2023-02-11T15:42:58.139Z,1.00
2023-02-11T15:45:37.366Z,1.00
2023-02-11T15:48:44.117Z,1.00
2023-02-11T15:51:30.244Z,1.00
2023-02-11T15:54:05.636Z,1.00
2023-02-11T15:56:44.148Z,1.00
2023-02-11T15:59:18.009Z,1.00
2023-02-11T16:01:46.772Z,1.00
2023-02-11T16:04:24.392Z,1.00
2023-02-11T16:06:53.676Z,1.00
2023-02-11T16:09:33.381Z,1.00
2023-02-11T16:12:22.940Z,1.00
2023-02-11T16:14:51.381Z,1.00
2023-02-11T16:17:30.789Z,1.00
2023-02-11T16:20:00.655Z,1.00
2023-02-11T16:22:37.090Z,1.00
2023-02-11T16:25:05.211Z,1.00
2023-02-11T16:27:38.943Z,1.00
2023-02-11T16:30:22.143Z,1.00
2023-02-11T16:32:51.049Z,1.00
2023-02-11T16:35:19.244Z,1.00
2023-02-11T16:37:48.324Z,1.00
2023-02-11T16:40:16.641Z,1.00
2023-02-11T16:42:44.603Z,1.00
2023-02-11T16:45:13.586Z,1.00
2023-02-11T16:47:43.602Z,1.00
2023-02-11T16:50:19.983Z,1.00
2023-02-11T16:52:48.571Z,1.00
2023-02-11T16:55:16.599Z,1.00
2023-02-11T16:57:45.286Z,1.00
2023-02-11T17:00:17.238Z,1.00
2023-02-11T17:02:45.175Z,1.00
2023-02-11T17:05:23.547Z,1.00
2023-02-11T17:07:51.585Z,1.00
2023-02-11T17:10:24.666Z,1.00
2023-02-11T17:12:54.138Z,1.00
2023-02-11T17:15:21.573Z,1.00
2023-02-11T17:17:49.370Z,1.00
2023-02-11T17:20:17.313Z,1.00
2023-02-11T17:22:45.276Z,1.00
2023-02-11T17:25:14.215Z,1.00
2023-02-11T17:27:42.321Z,1.00
2023-02-11T17:30:11.728Z,1.00
2023-02-11T17:32:39.326Z,1.00
2023-02-11T17:35:08.226Z,1.00
2023-02-11T17:37:36.379Z,1.00
2023-02-11T17:40:04.333Z,1.00
2023-02-11T17:42:32.329Z,1.00
2023-02-11T17:45:00.246Z,1.00
2023-02-11T17:47:28.308Z,1.00
2023-02-11T17:49:56.629Z,1.00
2023-02-11T17:52:25.509Z,1.00
2023-02-11T17:54:53.511Z,1.00
2023-02-11T17:57:23.234Z,1.00
2023-02-11T17:59:51.307Z,1.00
2023-02-11T18:02:20.153Z,1.00
2023-02-11T18:04:48.422Z,1.00
2023-02-11T18:07:16.485Z,1.00
2023-02-11T18:09:44.320Z,1.00
2023-02-11T18:12:12.625Z,1.00
2023-02-11T18:14:41.889Z,1.00
2023-02-11T18:17:11.250Z,1.00
2023-02-11T18:19:39.521Z,1.00
2023-02-11T18:22:07.560Z,1.00
2023-02-11T18:24:35.734Z,1.00
2023-02-11T18:27:03.986Z,1.00
2023-02-11T18:29:32.072Z,1.00
2023-02-11T18:32:00.296Z,1.00
2023-02-11T18:34:31.476Z,1.00
2023-02-11T18:36:59.558Z,1.00
2023-02-11T18:39:27.630Z,1.00
2023-02-11T18:41:57.555Z,1.00
2023-02-11T18:44:29.063Z,1.00
2023-02-11T18:46:57.138Z,1.00
2023-02-11T18:49:25.100Z,1.00
2023-02-11T18:51:55.615Z,1.00
2023-02-11T18:54:23.815Z,1.00
2023-02-11T18:56:52.767Z,1.00
2023-02-11T18:59:22.699Z,1.00
2023-02-11T19:01:52.128Z,1.00
2023-02-11T19:04:21.041Z,1.00
2023-02-11T19:06:50.913Z,1.00
2023-02-11T19:09:22.158Z,1.00
2023-02-11T19:11:54.865Z,1.00
2023-02-11T19:14:27.919Z,1.00
2023-02-11T19:16:58.394Z,1.00
2023-02-11T19:19:30.355Z,1.00
2023-02-11T19:21:59.797Z,1.00
2023-02-11T19:24:29.163Z,1.00
2023-02-11T19:26:59.908Z,1.00
2023-02-11T19:29:28.721Z,1.00
2023-02-11T19:31:57.384Z,1.00
2023-02-11T19:34:26.883Z,1.00
2023-02-11T19:36:56.318Z,1.00
2023-02-11T19:39:26.929Z,1.00
2023-02-11T19:41:55.353Z,1.00
2023-02-11T19:44:23.712Z,1.00
2023-02-11T19:46:54.055Z,1.00
2023-02-11T19:49:25.183Z,1.00
2023-02-11T19:52:00.546Z,1.00
2023-02-11T19:54:32.456Z,1.00
2023-02-11T19:57:00.433Z,1.00
2023-02-11T19:59:28.518Z,1.00
2023-02-11T20:01:56.832Z,1.00
2023-02-11T20:04:25.908Z,1.00
2023-02-11T20:06:54.442Z,1.00
2023-02-11T20:09:23.588Z,1.00
2023-02-11T20:11:52.216Z,1.00
2023-02-11T20:14:20.202Z,1.00
2023-02-11T20:16:49.936Z,1.00
2023-02-11T20:19:22.479Z,1.00
2023-02-11T20:21:56.455Z,1.00
2023-02-11T20:24:25.905Z,1.00
2023-02-11T20:27:00.714Z,1.00
2023-02-11T20:29:31.858Z,1.00
2023-02-11T20:32:01.593Z,1.00
2023-02-11T20:34:30.426Z,1.00
2023-02-11T20:36:58.764Z,1.00
2023-02-11T20:39:27.140Z,1.00
2023-02-11T20:41:57.295Z,1.00
2023-02-11T20:44:26.013Z,1.00
2023-02-11T20:46:54.901Z,1.00
2023-02-11T20:49:26.368Z,1.00
2023-02-11T20:51:54.510Z,1.00
2023-02-11T20:54:23.754Z,1.00
2023-02-11T20:56:54.295Z,1.00
2023-02-11T20:59:22.883Z,1.00
2023-02-11T21:01:56.682Z,1.00
2023-02-11T21:04:31.962Z,1.00
2023-02-11T21:07:02.189Z,1.00
2023-02-11T21:09:35.271Z,1.00
2023-02-11T21:12:03.414Z,1.00
2023-02-11T21:14:32.582Z,1.00
2023-02-11T21:17:00.625Z,1.00
2023-02-11T21:19:28.791Z,1.00
2023-02-11T21:22:01.313Z,1.00
2023-02-11T21:24:36.895Z,1.00
2023-02-11T21:27:05.110Z,1.00
2023-02-11T21:29:36.681Z,1.00
2023-02-11T21:32:10.272Z,1.00
2023-02-11T21:34:38.262Z,1.00
2023-02-11T21:37:06.288Z,1.00
2023-02-11T21:39:34.260Z,1.00
2023-02-11T21:42:02.353Z,1.00
2023-02-11T21:44:32.763Z,1.00
2023-02-11T21:47:00.797Z,1.00
2023-02-11T21:49:29.864Z,1.00
2023-02-11T21:51:57.626Z,1.00
2023-02-11T21:54:29.732Z,1.00
2023-02-11T21:56:57.817Z,1.00
2023-02-11T21:59:25.776Z,1.00
2023-02-11T22:01:53.442Z,1.00
2023-02-11T22:04:21.522Z,1.00
2023-02-11T22:06:49.437Z,1.00
2023-02-11T22:09:17.134Z,1.00
2023-02-11T22:11:44.279Z,1.00
2023-02-11T22:14:12.041Z,1.00
2023-02-11T22:16:39.304Z,1.00
2023-02-11T22:19:08.581Z,1.00
2023-02-11T22:21:36.030Z,1.00
2023-02-11T22:24:03.513Z,1.00
2023-02-11T22:26:30.844Z,1.00
2023-02-11T22:28:58.266Z,1.00
2023-02-11T22:31:31.493Z,1.00
2023-02-11T22:34:00.241Z,1.00
2023-02-11T22:36:30.234Z,1.00
2023-02-11T22:39:02.149Z,1.00
2023-02-11T22:41:30.162Z,1.00
2023-02-11T22:43:57.419Z,1.00
2023-02-11T22:46:24.642Z,1.00
2023-02-11T22:48:52.171Z,1.00
2023-02-11T22:51:27.215Z,1.00
2023-02-11T22:53:57.471Z,1.00
2023-02-11T22:56:25.744Z,1.00
2023-02-11T22:58:54.064Z,1.00
2023-02-11T23:01:21.287Z,1.00
2023-02-11T23:03:48.916Z,1.00
2023-02-11T23:06:16.253Z,1.00
2023-02-11T23:08:44.264Z,1.00
2023-02-11T23:11:18.193Z,1.00
2023-02-11T23:13:46.744Z,1.00
2023-02-11T23:16:17.562Z,1.00
2023-02-11T23:18:47.190Z,1.00
2023-02-11T23:21:23.291Z,1.00
2023-02-11T23:23:57.934Z,1.00
2023-02-11T23:26:25.004Z,1.00
2023-02-11T23:28:52.699Z,1.00
2023-02-11T23:31:25.936Z,1.00
2023-02-11T23:33:53.558Z,1.00
2023-02-11T23:36:22.145Z,1.00
2023-02-11T23:38:49.584Z,1.00
2023-02-11T23:41:17.409Z,1.00
2023-02-11T23:43:48.480Z,1.00
2023-02-11T23:46:15.716Z,1.00
2023-02-11T23:48:42.960Z,1.00
2023-02-11T23:51:10.197Z,1.00
2023-02-11T23:53:38.420Z,1.00
2023-02-11T23:56:17.030Z,1.00
2023-02-11T23:58:45.115Z,1.00
